Time;durP1;ratioP1;P1;durP2;ratioP2;P2;SDS_P1;SDS_P2;PMS_P1;PMS_P2;Temp;Humidity;BMP_temperature;BMP_pressure;BME280_temperature;BME280_humidity;BME280_pressure;Samples;Min_cycle;Max_cycle;Signal;HPM_P1;HPM_P2
2021/06/12 00:00:19;;;;;;;11.18;7.35;;;16.30;99.90;;;;;;5030278;28;20049;-82
2021/06/12 07:33:01;;;;;;;1.40;1.30;;;16.40;99.90;;;;;;5265702;23;20050;-80
2021/06/12 07:35:29;;;;;;;1.20;1.10;;;16.50;99.90;;;;;;4994446;28;20060;-79
2021/06/12 07:37:56;;;;;;;1.13;1.02;;;16.60;99.90;;;;;;4995255;28;20474;-80
2021/06/12 07:40:25;;;;;;;1.08;1.00;;;16.60;99.90;;;;;;4994048;28;20108;-79
2021/06/12 07:42:52;;;;;;;1.77;1.30;;;16.70;99.90;;;;;;5002974;28;20523;-79
2021/06/12 07:45:20;;;;;;;1.20;1.10;;;16.70;99.90;;;;;;4992631;28;20115;-79
2021/06/12 07:47:47;;;;;;;1.50;1.40;;;16.70;99.90;;;;;;5010332;28;20085;-83
2021/06/12 07:50:14;;;;;;;1.33;1.23;;;16.90;99.90;;;;;;5002210;28;20066;-80
2021/06/12 07:52:41;;;;;;;2.13;1.40;;;16.90;99.90;;;;;;5010019;28;20065;-82
2021/06/12 07:55:09;;;;;;;1.73;1.48;;;16.90;99.90;;;;;;4984903;28;20084;-79
2021/06/12 07:57:36;;;;;;;1.43;1.33;;;16.90;99.90;;;;;;4988892;28;20077;-83
2021/06/12 08:00:08;;;;;;;2.00;1.20;;;17.00;99.90;;;;;;4992774;28;20285;-79
2021/06/12 08:02:35;;;;;;;2.33;1.80;;;16.90;99.90;;;;;;4990686;28;20096;-79
2021/06/12 08:05:04;;;;;;;2.15;1.83;;;17.00;99.90;;;;;;5003188;28;20046;-79
2021/06/12 08:07:31;;;;;;;1.60;1.50;;;17.00;99.90;;;;;;4988225;28;20449;-79
2021/06/12 08:10:02;;;;;;;1.45;1.30;;;17.00;99.90;;;;;;5005366;28;20062;-79
2021/06/12 08:12:30;;;;;;;1.50;1.40;;;17.10;99.90;;;;;;4986042;28;20042;-80
2021/06/12 08:14:58;;;;;;;2.13;1.80;;;17.20;99.90;;;;;;5005684;28;20427;-79
2021/06/12 08:17:25;;;;;;;1.88;1.67;;;17.30;99.90;;;;;;5008217;28;20046;-81
2021/06/12 08:19:52;;;;;;;1.90;1.65;;;17.30;99.90;;;;;;4992412;28;20077;-79
2021/06/12 08:22:19;;;;;;;2.20;2.00;;;17.40;99.90;;;;;;4971489;28;20102;-80
2021/06/12 08:24:46;;;;;;;2.78;2.28;;;17.40;99.90;;;;;;4969080;28;20505;-80
2021/06/12 08:27:13;;;;;;;2.13;2.00;;;17.40;99.90;;;;;;4989003;28;20074;-80
2021/06/12 08:29:40;;;;;;;2.30;2.10;;;17.30;99.90;;;;;;4965578;28;20516;-79
2021/06/12 08:32:07;;;;;;;2.42;2.22;;;17.40;99.90;;;;;;4961358;28;20108;-80
2021/06/12 08:34:33;;;;;;;3.38;2.10;;;17.40;99.90;;;;;;4968610;28;20117;-79
2021/06/12 08:37:02;;;;;;;2.65;2.33;;;17.50;99.90;;;;;;4958480;28;20108;-79
2021/06/12 08:39:30;;;;;;;2.90;2.17;;;17.60;99.90;;;;;;4986589;28;20112;-79
2021/06/12 08:41:58;;;;;;;2.72;2.15;;;17.60;99.90;;;;;;4978577;28;20081;-78
2021/06/12 08:44:26;;;;;;;3.50;2.22;;;17.60;99.90;;;;;;4981114;28;20583;-78
2021/06/12 08:46:54;;;;;;;3.08;1.92;;;17.70;99.90;;;;;;4997737;28;20046;-82
2021/06/12 08:49:21;;;;;;;2.08;1.88;;;17.70;99.90;;;;;;4983962;28;20100;-81
2021/06/12 08:51:51;;;;;;;8.80;2.05;;;17.80;99.90;;;;;;4994132;28;20043;-79
2021/06/12 08:54:21;;;;;;;2.00;1.90;;;17.80;99.90;;;;;;4963197;28;20514;-82
2021/06/12 08:56:48;;;;;;;2.47;2.17;;;17.90;99.90;;;;;;4963465;28;20090;-81
2021/06/12 08:59:15;;;;;;;2.10;1.80;;;17.90;99.90;;;;;;4957696;28;20047;-81
2021/06/12 09:01:44;;;;;;;2.83;2.33;;;17.90;99.90;;;;;;4983104;28;20050;-83
2021/06/12 09:04:24;;;;;;;2.70;2.45;;;18.00;99.90;;;;;;4965670;28;20438;-81
2021/06/12 09:07:20;;;;;;;2.83;2.40;;;18.10;99.90;;;;;;4985083;28;20085;-81
2021/06/12 09:09:52;;;;;;;4.32;2.60;;;18.20;99.90;;;;;;5005940;28;20104;-82
2021/06/12 09:12:20;;;;;;;3.90;2.55;;;18.30;99.90;;;;;;5002635;28;20069;-84
2021/06/12 09:15:12;;;;;;;3.63;2.45;;;18.30;99.90;;;;;;5000906;28;20120;-83
2021/06/12 09:17:45;;;;;;;2.50;2.30;;;18.30;99.90;;;;;;4981562;28;20123;-80
2021/06/12 09:20:16;;;;;;;2.10;2.00;;;18.50;99.90;;;;;;4994510;28;20053;-81
2021/06/12 09:22:43;;;;;;;3.03;2.17;;;18.60;99.90;;;;;;4990655;28;20050;-82
2021/06/12 09:25:10;;;;;;;2.45;2.25;;;18.70;99.90;;;;;;4982425;28;20066;-83
2021/06/12 09:27:37;;;;;;;2.40;2.20;;;18.80;99.90;;;;;;5004193;28;20500;-84
2021/06/12 09:30:07;;;;;;;3.30;2.65;;;18.90;99.90;;;;;;4987863;28;20108;-81
2021/06/12 09:32:45;;;;;;;3.00;2.70;;;18.80;99.90;;;;;;4990964;28;20054;-82
2021/06/12 09:35:12;;;;;;;2.75;2.53;;;18.90;99.90;;;;;;4986008;28;20505;-82
2021/06/12 09:37:40;;;;;;;3.22;2.90;;;18.90;99.90;;;;;;4966517;28;20054;-85
2021/06/12 09:40:08;;;;;;;3.22;2.70;;;18.80;99.90;;;;;;4984490;28;20050;-84
2021/06/12 09:42:49;;;;;;;3.80;2.90;;;18.80;99.90;;;;;;4982286;28;20128;-83
2021/06/12 09:45:29;;;;;;;3.55;2.67;;;18.80;99.90;;;;;;4987054;28;20465;-81
2021/06/12 09:48:17;;;;;;;2.40;2.20;;;18.90;99.90;;;;;;4965539;28;20085;-81
2021/06/12 09:50:47;;;;;;;3.25;2.15;;;18.90;99.90;;;;;;4981679;28;20046;-82
2021/06/12 09:53:17;;;;;;;3.10;2.15;;;19.00;99.90;;;;;;4984727;28;20046;-82
2021/06/12 09:55:44;;;;;;;2.58;2.28;;;19.10;99.90;;;;;;4990735;28;20121;-84
2021/06/12 09:58:12;;;;;;;2.88;2.67;;;19.20;99.90;;;;;;4965297;28;20050;-81
2021/06/12 10:00:43;;;;;;;3.17;2.88;;;19.30;99.90;;;;;;4982871;28;20509;-82
2021/06/12 10:03:31;;;;;;;3.75;2.28;;;19.30;99.90;;;;;;4983568;28;20056;-82
2021/06/12 10:06:10;;;;;;;3.33;2.58;;;19.50;99.90;;;;;;4965403;28;20054;-82
2021/06/12 10:08:40;;;;;;;4.25;2.70;;;19.50;99.90;;;;;;4972506;28;20047;-81
2021/06/12 10:11:07;;;;;;;2.95;2.45;;;19.60;99.90;;;;;;4982535;28;20042;-82
2021/06/12 10:13:35;;;;;;;2.55;2.30;;;19.80;99.90;;;;;;4979575;28;20056;-83
2021/06/12 10:16:04;;;;;;;2.90;2.60;;;20.00;99.90;;;;;;5001752;28;20046;-80
2021/06/12 10:18:32;;;;;;;2.20;2.00;;;20.10;99.90;;;;;;4982136;28;20050;-84
2021/06/12 10:21:00;;;;;;;2.78;2.05;;;20.10;99.90;;;;;;4967653;28;20126;-83
2021/06/12 10:23:27;;;;;;;3.85;2.60;;;20.20;99.90;;;;;;4969535;28;20073;-83
2021/06/12 10:25:54;;;;;;;2.70;2.42;;;20.20;99.90;;;;;;4968185;28;20059;-81
2021/06/12 10:28:22;;;;;;;2.97;2.50;;;20.30;99.90;;;;;;4965323;28;20038;-84
2021/06/12 10:30:50;;;;;;;2.03;1.92;;;20.30;99.90;;;;;;4972235;28;20055;-83
2021/06/12 10:33:18;;;;;;;2.53;2.33;;;20.30;99.90;;;;;;4980003;28;20132;-82
2021/06/12 10:35:45;;;;;;;2.70;2.50;;;20.30;99.90;;;;;;4984933;28;20057;-83
2021/06/12 10:38:17;;;;;;;3.33;2.53;;;20.30;99.90;;;;;;4978700;28;20042;-82
2021/06/12 10:40:48;;;;;;;3.25;2.95;;;20.60;99.90;;;;;;4991028;28;20051;-81
2021/06/12 10:43:21;;;;;;;3.15;2.55;;;20.70;99.90;;;;;;4979482;28;20061;-83
2021/06/12 10:46:08;;;;;;;2.97;1.92;;;20.50;99.90;;;;;;4964769;28;20482;-84
2021/06/12 10:48:49;;;;;;;2.63;2.40;;;20.60;99.90;;;;;;4961949;28;20101;-86
2021/06/12 10:51:27;;;;;;;2.80;2.60;;;20.70;99.90;;;;;;4973796;28;20146;-83
2021/06/12 10:56:54;;;;;;;2.78;2.22;;;21.10;99.90;;;;;;4975985;28;20051;-79
2021/06/12 10:59:47;;;;;;;3.30;2.10;;;21.40;99.90;;;;;;4977992;28;20081;-84
2021/06/12 11:05:04;;;;;;;2.08;1.92;;;21.90;99.90;;;;;;4966276;28;20054;-80
2021/06/12 11:07:39;;;;;;;2.75;2.10;;;22.00;99.90;;;;;;4975711;28;20046;-80
2021/06/12 11:10:11;;;;;;;2.25;2.05;;;22.20;99.90;;;;;;4989300;28;20452;-82
2021/06/12 11:12:40;;;;;;;3.33;2.35;;;22.20;99.90;;;;;;4994889;28;20465;-80
2021/06/12 11:15:11;;;;;;;2.38;2.10;;;22.20;99.90;;;;;;4985377;28;20055;-81
2021/06/12 11:17:39;;;;;;;2.22;2.03;;;22.40;99.90;;;;;;4981809;28;20126;-81
2021/06/12 11:20:06;;;;;;;2.22;2.00;;;22.50;99.90;;;;;;4979469;28;20104;-81
2021/06/12 11:22:50;;;;;;;2.78;1.80;;;22.40;99.90;;;;;;4976596;28;20049;-81
2021/06/12 11:25:17;;;;;;;3.17;1.75;;;22.60;99.90;;;;;;4980424;28;20142;-80
2021/06/12 11:27:46;;;;;;;2.30;1.80;;;22.60;99.90;;;;;;4991954;28;20093;-80
2021/06/12 11:30:16;;;;;;;1.70;1.55;;;22.60;99.90;;;;;;4983396;28;20046;-80
2021/06/12 11:32:52;;;;;;;2.10;1.90;;;22.50;99.90;;;;;;4964476;28;20409;-83
2021/06/12 11:35:41;;;;;;;2.25;2.05;;;22.50;99.90;;;;;;4965950;28;20182;-82
2021/06/12 11:38:11;;;;;;;4.03;1.85;;;22.50;99.90;;;;;;4966499;28;20050;-80
2021/06/12 11:41:03;;;;;;;2.35;2.10;;;22.60;99.90;;;;;;4965250;28;20138;-79
2021/06/12 11:43:36;;;;;;;2.53;2.10;;;22.60;99.90;;;;;;4965817;28;20038;-80
2021/06/12 11:46:15;;;;;;;2.30;2.08;;;22.60;99.90;;;;;;4949371;28;20461;-80
2021/06/12 11:48:49;;;;;;;1.90;1.80;;;22.80;99.90;;;;;;4962263;28;20058;-81
2021/06/12 11:51:18;;;;;;;2.22;2.03;;;22.90;99.90;;;;;;4962544;28;20078;-81
2021/06/12 11:54:06;;;;;;;2.47;1.83;;;22.80;99.90;;;;;;4957042;28;20577;-80
2021/06/12 11:56:38;;;;;;;3.42;1.85;;;23.00;99.90;;;;;;4963842;28;20043;-82
2021/06/12 11:59:06;;;;;;;2.05;1.85;;;23.00;99.90;;;;;;4964313;28;20106;-82
2021/06/12 12:01:34;;;;;;;1.77;1.67;;;23.10;99.90;;;;;;4957808;28;20094;-81
2021/06/12 12:04:11;;;;;;;2.07;1.60;;;23.10;99.90;;;;;;4961356;28;20082;-85
2021/06/12 12:06:44;;;;;;;3.40;1.75;;;23.20;99.90;;;;;;4961885;28;20287;-80
2021/06/12 12:09:20;;;;;;;1.88;1.75;;;23.30;99.90;;;;;;4960541;28;20180;-81
2021/06/12 12:11:52;;;;;;;2.55;1.77;;;23.30;99.90;;;;;;4965006;28;20109;-82
2021/06/12 12:14:26;;;;;;;2.53;1.80;;;23.30;99.90;;;;;;4959762;28;20134;-84
2021/06/12 12:16:54;;;;;;;2.28;1.52;;;23.30;99.90;;;;;;4959113;28;20102;-81
2021/06/12 12:19:21;;;;;;;1.70;1.60;;;23.40;99.90;;;;;;4959625;28;20073;-82
2021/06/12 12:21:52;;;;;;;2.95;1.55;;;23.40;99.90;;;;;;4960807;28;20051;-82
2021/06/12 12:24:20;;;;;;;2.03;1.80;;;23.40;99.90;;;;;;4964239;28;20102;-83
2021/06/12 12:27:08;;;;;;;2.47;1.80;;;23.50;99.90;;;;;;4963169;28;20167;-83
2021/06/12 12:29:40;;;;;;;1.85;1.70;;;23.50;99.90;;;;;;4959302;28;20039;-81
2021/06/12 12:32:07;;;;;;;2.20;1.60;;;23.60;99.90;;;;;;4960570;28;20485;-82
2021/06/12 12:34:39;;;;;;;2.40;1.50;;;23.80;99.90;;;;;;4964286;28;20472;-82
2021/06/12 12:37:09;;;;;;;3.47;1.77;;;23.90;99.90;;;;;;4961018;28;20051;-83
2021/06/12 12:39:44;;;;;;;1.50;1.40;;;23.90;99.90;;;;;;4966068;28;20090;-82
2021/06/12 12:42:20;;;;;;;2.30;1.80;;;23.90;99.90;;;;;;4962892;28;20051;-83
2021/06/12 12:44:48;;;;;;;2.95;1.80;;;23.90;99.90;;;;;;4978249;28;20110;-82
2021/06/12 12:47:21;;;;;;;1.70;1.40;;;23.90;99.90;;;;;;4971799;28;20043;-82
2021/06/12 12:49:49;;;;;;;1.92;1.60;;;24.00;99.90;;;;;;4970305;28;20106;-81
2021/06/12 12:52:21;;;;;;;3.78;1.60;;;24.10;99.90;;;;;;4959787;28;20051;-85
2021/06/12 12:55:09;;;;;;;1.38;1.27;;;24.20;99.90;;;;;;4971886;28;20051;-80
2021/06/12 12:57:56;;;;;;;2.93;1.47;;;24.10;99.90;;;;;;4962099;28;20042;-81
2021/06/12 13:00:29;;;;;;;1.77;1.67;;;24.10;99.90;;;;;;4969145;28;20101;-80
2021/06/12 13:03:07;;;;;;;4.53;1.25;;;24.10;99.90;;;;;;4972349;28;20057;-83
2021/06/12 13:05:46;;;;;;;5.78;1.60;;;24.20;99.90;;;;;;4963554;28;20047;-82
2021/06/12 13:08:18;;;;;;;2.67;1.63;;;24.20;99.90;;;;;;4968247;28;20047;-84
2021/06/12 13:10:47;;;;;;;2.17;1.48;;;24.20;99.90;;;;;;4970930;28;20109;-84
2021/06/12 13:13:16;;;;;;;1.77;1.30;;;24.10;99.90;;;;;;4970356;28;20074;-83
2021/06/12 13:15:57;;;;;;;2.20;1.55;;;24.20;99.90;;;;;;4972125;28;20133;-83
2021/06/12 13:18:36;;;;;;;2.85;1.60;;;24.30;99.90;;;;;;4974475;28;20054;-84
2021/06/12 13:21:14;;;;;;;2.05;1.70;;;24.30;99.90;;;;;;4970982;28;20057;-85
2021/06/12 13:23:41;;;;;;;2.28;1.48;;;24.30;99.90;;;;;;4960547;28;20094;-86
2021/06/12 13:26:23;;;;;;;2.25;1.60;;;24.30;99.90;;;;;;4972056;28;20046;-86
2021/06/12 13:28:51;;;;;;;2.28;1.70;;;24.40;99.90;;;;;;4970970;28;20050;-86
2021/06/12 13:31:23;;;;;;;2.60;1.92;;;24.40;99.90;;;;;;4973275;28;20106;-89
2021/06/12 13:33:51;;;;;;;3.70;1.80;;;24.30;99.90;;;;;;4987969;28;20085;-89
2021/06/12 13:36:20;;;;;;;3.13;1.93;;;24.30;99.90;;;;;;4967211;28;20050;-90
2021/06/12 13:38:53;;;;;;;2.17;1.67;;;24.40;99.90;;;;;;4957092;28;20278;-89
2021/06/12 13:41:21;;;;;;;2.25;1.80;;;24.30;99.90;;;;;;4957948;28;20576;-87
2021/06/12 13:43:50;;;;;;;3.73;2.33;;;24.30;99.90;;;;;;4963924;28;20042;-85
2021/06/12 13:46:19;;;;;;;2.25;2.00;;;24.40;99.90;;;;;;4977291;28;20050;-86
2021/06/12 13:48:48;;;;;;;4.32;2.30;;;24.40;99.90;;;;;;4992531;28;20065;-86
2021/06/12 13:51:16;;;;;;;2.58;2.38;;;24.30;99.90;;;;;;4990160;28;20043;-88
2021/06/12 13:53:51;;;;;;;3.90;2.45;;;24.30;99.90;;;;;;4984448;28;20055;-86
2021/06/12 13:56:21;;;;;;;4.28;1.92;;;24.30;99.90;;;;;;4989920;28;20049;-85
2021/06/12 13:58:48;;;;;;;3.15;2.35;;;24.30;99.90;;;;;;4973093;28;20469;-91
2021/06/12 14:01:16;;;;;;;4.43;2.55;;;24.40;99.90;;;;;;4975310;28;20073;-87
2021/06/12 14:03:44;;;;;;;2.85;2.53;;;24.40;99.90;;;;;;4976451;28;20054;-88
2021/06/12 14:06:12;;;;;;;3.00;2.10;;;24.40;99.90;;;;;;5011527;28;20109;-89
2021/06/12 14:08:39;;;;;;;2.67;1.95;;;24.30;99.90;;;;;;5002015;28;20289;-86
2021/06/12 14:11:07;;;;;;;4.05;2.63;;;24.30;99.90;;;;;;5009972;28;20043;-86
2021/06/12 14:13:35;;;;;;;3.60;2.10;;;24.30;99.90;;;;;;5012668;28;20098;-88
2021/06/12 14:16:03;;;;;;;4.38;2.53;;;24.50;99.90;;;;;;4993527;28;20068;-90
2021/06/12 14:18:32;;;;;;;6.18;2.30;;;24.50;99.90;;;;;;5003784;28;20438;-89
2021/06/12 14:21:00;;;;;;;9.30;3.00;;;24.40;99.90;;;;;;4988695;28;20459;-86
2021/06/12 14:23:29;;;;;;;3.65;2.53;;;24.30;99.90;;;;;;4997968;28;20505;-87
2021/06/12 14:25:56;;;;;;;4.15;2.53;;;24.30;99.90;;;;;;4989944;28;20111;-89
2021/06/12 14:28:25;;;;;;;3.43;2.30;;;24.20;99.90;;;;;;4983335;28;20099;-87
2021/06/12 14:30:54;;;;;;;3.22;2.40;;;24.20;99.90;;;;;;5022995;28;20054;-87
2021/06/12 14:33:22;;;;;;;3.88;2.33;;;24.20;99.90;;;;;;5014551;28;20466;-90
2021/06/12 14:36:07;;;;;;;10.13;2.70;;;24.30;99.90;;;;;;5016428;28;20049;-87
2021/06/12 14:38:34;;;;;;;3.65;2.30;;;24.40;99.90;;;;;;5013742;28;20050;-88
2021/06/12 14:41:01;;;;;;;4.60;2.90;;;24.40;99.90;;;;;;5015414;28;20050;-91
2021/06/12 14:43:34;;;;;;;3.95;2.40;;;24.40;99.90;;;;;;5027101;28;20242;-89
2021/06/12 14:46:02;;;;;;;4.00;2.53;;;24.40;99.90;;;;;;5027889;28;20045;-87
2021/06/12 14:48:29;;;;;;;4.15;2.63;;;24.30;99.90;;;;;;5014071;28;20096;-90
2021/06/12 14:50:56;;;;;;;5.40;2.42;;;24.30;99.90;;;;;;5026687;28;20054;-90
2021/06/12 14:53:23;;;;;;;4.18;2.50;;;24.40;99.90;;;;;;5007869;28;20046;-86
2021/06/12 14:55:50;;;;;;;5.68;2.50;;;24.30;99.90;;;;;;5021878;28;20045;-89
2021/06/12 14:58:17;;;;;;;5.45;2.95;;;24.30;99.90;;;;;;5015267;28;20553;-87
2021/06/12 15:00:44;;;;;;;3.15;2.25;;;24.30;99.90;;;;;;5011295;28;20069;-87
2021/06/12 15:03:11;;;;;;;3.45;2.65;;;24.30;99.90;;;;;;5016449;28;20041;-87
2021/06/12 15:05:38;;;;;;;3.70;2.45;;;24.30;99.90;;;;;;5016065;28;20053;-87
2021/06/12 15:08:06;;;;;;;7.38;2.63;;;24.20;99.90;;;;;;5013314;28;20512;-86
2021/06/12 15:10:33;;;;;;;4.70;2.33;;;24.20;99.90;;;;;;5021327;28;20050;-92
2021/06/12 15:13:00;;;;;;;5.80;3.00;;;24.20;99.90;;;;;;5010716;28;20082;-88
2021/06/12 15:15:28;;;;;;;3.95;2.42;;;24.20;99.90;;;;;;5010496;28;20046;-90
2021/06/12 15:17:55;;;;;;;5.03;2.65;;;24.10;99.90;;;;;;4991356;28;20053;-90
2021/06/12 15:20:22;;;;;;;5.93;2.57;;;24.10;99.90;;;;;;5012845;28;20065;-87
2021/06/12 15:22:49;;;;;;;4.00;2.20;;;24.10;99.90;;;;;;5002914;28;20343;-85
2021/06/12 15:25:16;;;;;;;2.90;2.00;;;24.20;99.90;;;;;;5007947;28;20100;-86
2021/06/12 15:27:43;;;;;;;6.03;2.80;;;24.20;99.90;;;;;;5011850;28;20050;-86
2021/06/12 15:30:10;;;;;;;5.13;2.85;;;24.20;99.90;;;;;;5004166;28;20053;-86
2021/06/12 15:32:37;;;;;;;6.70;2.42;;;24.20;99.90;;;;;;5012921;28;20107;-84
2021/06/12 15:35:06;;;;;;;4.55;2.45;;;24.30;99.80;;;;;;5012148;28;20120;-87
2021/06/12 15:37:33;;;;;;;6.18;2.50;;;24.30;99.90;;;;;;4993384;28;22162;-87
2021/06/12 15:40:00;;;;;;;6.90;2.83;;;24.30;99.90;;;;;;4996573;28;20500;-89
2021/06/12 15:42:27;;;;;;;4.63;2.30;;;24.30;99.90;;;;;;5013445;28;20054;-88
2021/06/12 15:44:55;;;;;;;6.22;2.40;;;24.30;99.90;;;;;;5008997;28;20102;-86
2021/06/12 15:47:22;;;;;;;5.20;2.30;;;24.30;99.90;;;;;;5002341;28;20532;-86
2021/06/12 15:49:49;;;;;;;3.53;1.85;;;24.30;99.90;;;;;;4997620;28;20199;-86
2021/06/12 15:52:16;;;;;;;4.95;2.40;;;24.40;99.70;;;;;;4988714;28;20054;-87
2021/06/12 15:54:44;;;;;;;5.95;2.58;;;24.50;99.70;;;;;;4999802;28;20416;-88
2021/06/12 15:57:11;;;;;;;7.97;2.70;;;24.50;99.90;;;;;;4997484;28;20139;-86
2021/06/12 15:59:38;;;;;;;5.93;2.35;;;24.50;99.60;;;;;;5002443;28;20082;-87
2021/06/12 16:02:05;;;;;;;6.65;2.80;;;24.50;99.80;;;;;;5004229;28;20054;-91
2021/06/12 16:04:32;;;;;;;7.45;2.53;;;24.40;99.40;;;;;;5000823;28;20502;-88
2021/06/12 16:06:59;;;;;;;9.43;2.60;;;24.20;99.70;;;;;;5003828;28;20047;-91
2021/06/12 16:09:26;;;;;;;5.53;2.53;;;24.30;99.90;;;;;;4994431;28;20050;-88
2021/06/12 16:11:53;;;;;;;11.52;2.60;;;24.40;99.90;;;;;;4983245;28;20046;-88
2021/06/12 16:14:20;;;;;;;7.20;2.50;;;24.30;99.80;;;;;;4982539;28;20422;-90
2021/06/12 16:16:47;;;;;;;8.98;2.60;;;24.30;99.90;;;;;;4984146;28;20105;-87
2021/06/12 16:19:14;;;;;;;4.63;2.33;;;24.30;99.80;;;;;;4989804;28;20047;-89
2021/06/12 16:21:41;;;;;;;7.88;3.05;;;24.40;99.90;;;;;;4993429;28;20100;-91
2021/06/12 16:24:08;;;;;;;6.05;2.53;;;24.60;99.90;;;;;;4987557;28;20490;-90
2021/06/12 16:26:35;;;;;;;8.77;2.67;;;24.50;99.50;;;;;;5004176;28;20054;-90
2021/06/12 16:29:02;;;;;;;8.10;2.65;;;24.40;99.30;;;;;;5008080;28;20100;-89
2021/06/12 16:31:29;;;;;;;6.78;2.40;;;24.40;99.20;;;;;;5001165;28;20042;-91
2021/06/12 16:33:56;;;;;;;8.88;2.60;;;24.40;99.10;;;;;;5004383;28;20049;-90
2021/06/12 16:36:24;;;;;;;6.22;2.03;;;24.30;99.10;;;;;;5016424;28;20049;-86
2021/06/12 16:38:52;;;;;;;8.68;3.05;;;24.30;99.40;;;;;;5011204;28;20108;-87
2021/06/12 16:41:20;;;;;;;8.57;3.17;;;24.30;99.70;;;;;;5004276;28;20129;-86
2021/06/12 16:43:47;;;;;;;10.10;2.70;;;24.30;99.90;;;;;;4998110;28;20092;-85
2021/06/12 16:46:14;;;;;;;9.25;2.92;;;24.30;99.90;;;;;;5008144;28;20103;-87
2021/06/12 16:48:41;;;;;;;6.47;2.80;;;24.40;99.90;;;;;;5011260;28;20056;-85
2021/06/12 16:51:08;;;;;;;8.90;2.80;;;24.40;99.90;;;;;;5007521;28;20053;-85
2021/06/12 16:53:38;;;;;;;6.68;2.83;;;24.30;99.90;;;;;;5010752;28;20180;-87
2021/06/12 16:56:10;;;;;;;8.45;2.88;;;24.40;99.80;;;;;;5023936;28;20126;-92
2021/06/12 17:01:17;;;;;;;6.25;2.63;;;24.30;99.90;;;;;;5028731;28;20103;-88
2021/06/12 17:03:45;;;;;;;6.80;2.60;;;24.40;99.90;;;;;;5009100;28;20060;-87
2021/06/12 17:06:12;;;;;;;9.07;3.13;;;24.40;99.90;;;;;;5011430;28;20053;-87
2021/06/12 17:08:39;;;;;;;8.75;3.08;;;24.50;99.90;;;;;;5006199;28;20053;-92
2021/06/12 17:11:06;;;;;;;8.82;2.72;;;24.40;99.90;;;;;;5029394;28;20045;-85
2021/06/12 17:13:33;;;;;;;7.15;2.85;;;24.40;99.90;;;;;;5009498;28;20045;-85
2021/06/12 17:16:00;;;;;;;6.03;2.85;;;24.40;99.90;;;;;;5029330;28;20041;-89
2021/06/12 17:18:27;;;;;;;11.38;2.90;;;24.30;99.80;;;;;;5009370;28;20132;-85
2021/06/12 17:20:54;;;;;;;7.38;2.83;;;24.30;99.90;;;;;;5012590;28;20099;-89
2021/06/12 17:23:24;;;;;;;6.25;2.72;;;24.30;99.90;;;;;;5006197;28;20504;-86
2021/06/12 17:25:52;;;;;;;6.32;4.05;;;24.40;99.90;;;;;;5005331;28;20050;-84
2021/06/12 17:28:19;;;;;;;7.65;2.70;;;24.40;99.90;;;;;;5027961;28;20111;-86
2021/06/12 17:30:57;;;;;;;4.88;2.22;;;24.40;99.90;;;;;;5012352;28;20095;-85
2021/06/12 17:33:24;;;;;;;6.43;2.60;;;24.40;99.90;;;;;;5023870;28;20064;-85
2021/06/12 17:35:51;;;;;;;7.60;2.35;;;24.50;99.90;;;;;;5002005;28;20053;-86
2021/06/12 17:38:19;;;;;;;5.68;2.88;;;24.50;99.90;;;;;;5009610;28;20045;-85
2021/06/12 17:40:48;;;;;;;6.90;2.50;;;24.60;99.90;;;;;;5013785;28;20096;-86
2021/06/12 17:43:16;;;;;;;7.78;4.40;;;24.80;99.90;;;;;;5010672;28;20128;-86
2021/06/12 17:45:43;;;;;;;25.90;22.75;;;24.90;99.90;;;;;;5014548;28;20563;-86
2021/06/12 17:48:10;;;;;;;9.55;6.10;;;25.00;99.90;;;;;;4999547;28;20416;-85
2021/06/12 17:50:39;;;;;;;7.18;2.78;;;25.30;99.80;;;;;;5004699;28;20062;-85
2021/06/12 17:53:06;;;;;;;5.97;2.65;;;25.50;99.20;;;;;;5008661;28;20088;-85
2021/06/12 17:55:33;;;;;;;11.60;2.30;;;25.90;99.00;;;;;;5006647;28;20049;-85
2021/06/12 17:58:00;;;;;;;5.13;2.47;;;26.20;98.30;;;;;;5026629;28;20084;-85
2021/06/12 18:00:27;;;;;;;6.07;2.30;;;26.50;98.10;;;;;;5005727;28;20050;-84
2021/06/12 18:02:54;;;;;;;10.70;4.82;;;27.00;98.00;;;;;;5025967;28;20045;-85
2021/06/12 18:05:22;;;;;;;21.13;15.27;;;27.30;97.30;;;;;;5007071;28;20056;-85
2021/06/12 18:07:50;;;;;;;32.50;24.85;;;27.90;96.90;;;;;;5007486;28;20199;-86
2021/06/12 18:10:17;;;;;;;5.93;3.10;;;28.40;96.10;;;;;;5005638;28;20463;-88
2021/06/12 18:12:44;;;;;;;23.05;17.77;;;28.50;95.40;;;;;;5008684;28;20057;-87
2021/06/12 18:15:19;;;;;;;31.73;24.67;;;28.80;94.90;;;;;;5005282;28;20127;-86
2021/06/12 18:17:47;;;;;;;15.95;9.82;;;28.90;94.20;;;;;;5007538;28;20041;-88
2021/06/12 18:20:15;;;;;;;10.18;4.97;;;29.00;93.40;;;;;;5008290;28;20062;-86
2021/06/12 18:22:41;;;;;;;13.10;8.70;;;29.10;93.30;;;;;;5025464;28;20037;-88
2021/06/12 18:25:12;;;;;;;11.45;8.55;;;29.00;92.00;;;;;;5011781;28;20045;-88
2021/06/12 18:27:39;;;;;;;7.88;5.50;;;28.80;92.20;;;;;;5023436;28;20186;-86
2021/06/12 18:30:07;;;;;;;12.18;7.05;;;28.70;92.20;;;;;;5007579;28;20057;-87
2021/06/12 18:32:34;;;;;;;7.82;3.67;;;28.90;92.30;;;;;;5000552;28;20101;-88
2021/06/12 18:35:01;;;;;;;5.78;2.28;;;29.20;92.10;;;;;;5009989;28;20049;-87
2021/06/12 18:37:28;;;;;;;6.53;2.72;;;29.60;91.40;;;;;;5021354;28;20516;-86
2021/06/12 18:39:55;;;;;;;6.45;2.15;;;29.30;91.00;;;;;;5028586;28;20535;-86
2021/06/12 18:42:22;;;;;;;7.00;2.03;;;29.70;90.60;;;;;;5009351;28;20053;-89
2021/06/12 18:44:49;;;;;;;5.95;1.90;;;29.70;90.30;;;;;;5006845;28;20054;-87
2021/06/12 18:47:16;;;;;;;4.65;2.05;;;29.70;90.30;;;;;;5001307;28;20065;-88
2021/06/12 18:49:43;;;;;;;6.65;1.90;;;29.90;90.10;;;;;;5003649;28;20078;-87
2021/06/12 18:52:10;;;;;;;8.73;2.35;;;29.90;89.50;;;;;;4984716;28;20046;-88
2021/06/12 18:54:37;;;;;;;7.00;2.10;;;29.90;88.70;;;;;;5000731;28;20508;-89
2021/06/12 18:57:04;;;;;;;4.80;1.77;;;29.70;87.90;;;;;;5002511;28;20472;-86
2021/06/12 18:59:31;;;;;;;5.70;2.10;;;29.90;87.90;;;;;;5003912;28;20041;-88
2021/06/12 19:01:57;;;;;;;6.38;2.30;;;29.80;87.40;;;;;;5002359;28;20064;-90
2021/06/12 19:04:24;;;;;;;4.90;1.77;;;29.70;87.10;;;;;;5003398;28;20073;-86
2021/06/12 19:06:51;;;;;;;6.03;2.03;;;29.50;86.80;;;;;;5010443;28;20053;-86
2021/06/12 19:09:18;;;;;;;4.80;2.10;;;29.60;87.00;;;;;;5007392;28;20049;-85
2021/06/12 19:11:45;;;;;;;5.47;2.10;;;29.50;87.10;;;;;;5005939;28;20573;-86
2021/06/12 19:14:12;;;;;;;6.07;2.30;;;29.30;87.30;;;;;;5016685;28;20687;-86
2021/06/12 19:16:39;;;;;;;5.07;1.77;;;29.20;86.60;;;;;;5023121;28;20058;-85
2021/06/12 19:19:06;;;;;;;5.68;2.20;;;29.00;86.90;;;;;;5027433;28;20496;-88
2021/06/12 19:21:32;;;;;;;5.55;2.00;;;28.90;86.70;;;;;;5022961;28;20046;-86
2021/06/12 19:23:59;;;;;;;6.00;1.92;;;28.70;86.50;;;;;;5002492;28;20428;-86
2021/06/12 19:26:26;;;;;;;5.28;2.10;;;28.50;86.60;;;;;;5002520;28;20038;-88
2021/06/12 19:28:54;;;;;;;5.68;2.20;;;28.20;87.30;;;;;;5009140;28;20057;-87
2021/06/12 19:31:21;;;;;;;5.18;2.13;;;27.60;88.10;;;;;;5012476;28;20099;-89
2021/06/12 19:33:48;;;;;;;6.13;2.05;;;27.00;88.90;;;;;;5029013;28;20434;-85
2021/06/12 19:36:19;;;;;;;7.53;1.80;;;26.20;90.10;;;;;;5029352;28;20139;-89
2021/06/12 19:38:59;;;;;;;5.88;2.20;;;25.50;90.80;;;;;;5027275;28;20138;-85
2021/06/12 19:41:28;;;;;;;7.68;2.38;;;24.90;91.50;;;;;;5008439;28;20103;-84
2021/06/12 19:43:56;;;;;;;7.07;2.20;;;24.40;92.30;;;;;;5010309;28;20104;-92
2021/06/12 19:46:24;;;;;;;7.70;2.45;;;23.80;93.00;;;;;;5030053;28;20527;-89
2021/06/12 19:48:51;;;;;;;9.70;2.63;;;23.30;93.70;;;;;;5019036;28;20066;-89
2021/06/12 19:51:19;;;;;;;7.60;2.85;;;22.80;94.30;;;;;;5028722;28;20100;-92
2021/06/12 19:53:47;;;;;;;6.72;2.70;;;22.40;94.90;;;;;;5028351;28;20116;-90
2021/06/12 19:56:15;;;;;;;7.88;2.35;;;22.10;95.40;;;;;;5009951;28;20457;-92
2021/06/12 19:58:42;;;;;;;7.90;2.78;;;21.90;95.70;;;;;;5025601;28;20085;-86
2021/06/12 20:01:10;;;;;;;7.23;2.20;;;21.70;96.20;;;;;;5005788;28;20046;-88
2021/06/12 20:03:40;;;;;;;7.93;2.53;;;21.50;96.60;;;;;;5030702;28;20506;-88
2021/06/12 20:06:08;;;;;;;9.32;2.55;;;21.20;97.00;;;;;;5010612;28;20402;-85
2021/06/12 20:08:35;;;;;;;9.25;2.80;;;21.10;97.40;;;;;;5021057;28;20153;-86
2021/06/12 20:11:04;;;;;;;6.03;2.55;;;20.80;97.70;;;;;;5010118;28;20100;-87
2021/06/12 20:13:31;;;;;;;6.95;2.47;;;20.70;98.00;;;;;;5005956;28;20452;-89
2021/06/12 20:16:00;;;;;;;7.25;2.67;;;20.60;98.20;;;;;;4996679;28;20046;-91
2021/06/12 20:18:27;;;;;;;6.57;2.47;;;20.40;98.40;;;;;;4993766;28;20049;-86
2021/06/12 20:20:54;;;;;;;8.40;2.65;;;20.40;98.70;;;;;;5015860;28;20049;-87
2021/06/12 20:23:21;;;;;;;8.38;2.50;;;20.20;99.10;;;;;;5006575;28;20038;-92
2021/06/12 20:25:49;;;;;;;7.20;2.70;;;20.10;99.30;;;;;;5003911;28;20054;-88
2021/06/12 20:28:16;;;;;;;9.98;2.92;;;20.00;99.60;;;;;;5003908;28;20058;-84
2021/06/12 20:30:43;;;;;;;7.07;2.67;;;19.90;99.90;;;;;;4999380;28;20453;-86
2021/06/12 20:33:10;;;;;;;7.03;2.42;;;19.80;99.90;;;;;;5003990;28;20116;-85
2021/06/12 20:35:39;;;;;;;5.97;2.63;;;19.70;99.90;;;;;;5001409;28;20094;-86